createdAt,value
2018-03-11T00:00:08.261Z,11.97
2018-03-11T00:02:36.587Z,11.99
2018-03-11T00:05:08.236Z,11.91
2018-03-11T00:07:36.541Z,11.86
2018-03-11T00:10:08.098Z,11.91
2018-03-11T00:12:36.389Z,11.84
2018-03-11T00:15:06.379Z,11.90
2018-03-11T00:17:34.678Z,11.89
2018-03-11T00:20:06.249Z,11.86
2018-03-11T00:22:34.533Z,11.85
2018-03-11T00:25:07.295Z,11.87
2018-03-11T00:27:35.601Z,11.82
2018-03-11T00:30:07.362Z,11.84
2018-03-11T00:32:35.657Z,11.83
2018-03-11T00:35:07.185Z,11.86
2018-03-11T00:37:35.530Z,11.88
2018-03-11T00:40:08.082Z,11.86
2018-03-11T00:42:36.357Z,11.93
2018-03-11T00:45:06.502Z,11.98
2018-03-11T00:47:34.778Z,11.96
2018-03-11T00:50:06.807Z,11.98
2018-03-11T00:52:35.134Z,11.87
2018-03-11T00:55:06.670Z,11.73
2018-03-11T00:57:34.971Z,11.75
2018-03-11T01:00:06.429Z,11.75
2018-03-11T01:02:34.749Z,11.73
2018-03-11T01:05:09.896Z,11.72
2018-03-11T01:07:38.199Z,11.68
2018-03-11T01:10:06.502Z,11.65
2018-03-11T01:12:34.835Z,11.56
2018-03-11T01:15:09.843Z,11.46
2018-03-11T01:17:38.174Z,11.36
2018-03-11T01:20:06.538Z,11.25
2018-03-11T01:22:34.760Z,11.13
2018-03-11T01:25:06.690Z,11.16
2018-03-11T01:27:35.125Z,11.06
2018-03-11T01:30:06.727Z,11.04
2018-03-11T01:32:36.278Z,11.03
2018-03-11T01:35:08.248Z,11.03
2018-03-11T01:37:36.544Z,11.00
2018-03-11T01:40:06.413Z,10.88
2018-03-11T01:42:34.749Z,10.85
2018-03-11T01:45:06.250Z,10.92
2018-03-11T01:47:34.534Z,10.82
2018-03-11T01:50:05.935Z,10.89
2018-03-11T01:55:33.321Z,10.70
2018-03-11T01:58:01.610Z,10.67
2018-03-11T02:00:29.916Z,10.73
2018-03-11T02:02:58.194Z,10.59
2018-03-11T02:05:27.440Z,10.64
2018-03-11T02:07:55.969Z,10.67
2018-03-11T02:10:24.261Z,10.69
2018-03-11T02:12:52.537Z,10.71
2018-03-11T02:15:20.856Z,10.73
2018-03-11T02:17:49.137Z,10.73
2018-03-11T02:20:17.421Z,10.66
2018-03-11T02:22:45.721Z,10.39
2018-03-11T02:25:14.139Z,10.50
2018-03-11T02:27:42.421Z,10.54
2018-03-11T02:30:10.738Z,10.53
2018-03-11T02:32:39.061Z,10.29
2018-03-11T02:35:07.369Z,10.12
2018-03-11T02:37:35.652Z,10.11
2018-03-11T02:40:06.734Z,10.26
2018-03-11T02:42:35.057Z,10.17
2018-03-11T02:45:09.089Z,10.30
2018-03-11T02:47:37.423Z,10.30
2018-03-11T02:50:06.721Z,10.23
2018-03-11T02:52:35.016Z,10.18
2018-03-11T02:55:06.389Z,10.30
2018-03-11T02:57:34.699Z,10.40
2018-03-11T03:00:06.698Z,10.40
2018-03-11T03:02:35.628Z,10.40
2018-03-11T03:05:05.621Z,10.44
2018-03-11T03:07:34.205Z,10.38
2018-03-11T03:10:10.055Z,10.36
2018-03-11T03:12:38.386Z,10.18
2018-03-11T03:15:06.662Z,9.97
2018-03-11T03:17:34.962Z,10.10
2018-03-11T03:20:06.770Z,10.12
2018-03-11T03:22:39.547Z,10.09
2018-03-11T03:25:08.040Z,10.06
2018-03-11T03:27:36.335Z,10.08
2018-03-11T03:30:05.984Z,10.06
2018-03-11T03:32:34.933Z,9.96
2018-03-11T03:35:06.733Z,10.00
2018-03-11T03:37:34.934Z,10.01
2018-03-11T03:40:05.773Z,9.93
2018-03-11T03:42:34.126Z,10.09
2018-03-11T03:45:08.254Z,9.96
2018-03-11T03:47:36.550Z,10.04
2018-03-11T03:50:06.144Z,10.19
2018-03-11T03:52:34.421Z,10.19
2018-03-11T03:55:05.753Z,10.29
2018-03-11T03:57:34.047Z,10.33
2018-03-11T04:00:10.233Z,10.22
2018-03-11T04:02:38.546Z,10.40
2018-03-11T04:05:06.830Z,10.45
2018-03-11T04:07:35.137Z,10.50
2018-03-11T04:10:07.248Z,10.46
2018-03-11T04:12:35.545Z,10.53
2018-03-11T04:15:07.409Z,10.57
2018-03-11T04:17:35.653Z,10.59
2018-03-11T04:20:05.801Z,10.64
2018-03-11T04:22:34.087Z,10.63
2018-03-11T04:25:09.209Z,10.61
2018-03-11T04:27:37.541Z,10.72
2018-03-11T04:30:05.827Z,10.67
2018-03-11T04:32:34.118Z,10.78
2018-03-11T04:35:05.701Z,10.74
2018-03-11T04:37:34.034Z,10.61
2018-03-11T04:40:05.502Z,10.70
2018-03-11T04:42:33.793Z,10.66
2018-03-11T04:45:05.711Z,10.69
2018-03-11T04:47:34.005Z,10.70
2018-03-11T04:50:09.174Z,10.81
2018-03-11T04:52:37.487Z,10.74
2018-03-11T04:55:05.772Z,10.81
2018-03-11T04:57:34.068Z,10.76
2018-03-11T05:00:05.950Z,10.79
2018-03-11T05:02:34.284Z,10.82
2018-03-11T05:05:05.772Z,10.81
2018-03-11T05:07:34.073Z,10.80
2018-03-11T05:10:05.509Z,10.75
2018-03-11T05:12:33.841Z,10.76
2018-03-11T05:15:06.039Z,10.73
2018-03-11T05:17:34.626Z,10.75
2018-03-11T05:20:05.731Z,10.80
2018-03-11T05:22:34.002Z,10.70
2018-03-11T05:25:05.496Z,10.71
2018-03-11T05:27:33.790Z,10.78
2018-03-11T05:30:05.105Z,10.76
2018-03-11T05:32:33.386Z,10.74
2018-03-11T05:35:08.153Z,10.73
2018-03-11T05:37:36.430Z,10.72
2018-03-11T05:40:05.942Z,10.72
2018-03-11T05:42:34.219Z,10.79
2018-03-11T05:45:05.792Z,10.76
2018-03-11T05:47:34.068Z,10.79
2018-03-11T05:50:05.854Z,10.87
2018-03-11T05:52:34.181Z,10.93
2018-03-11T05:55:09.228Z,10.96
2018-03-11T05:57:37.513Z,10.92
2018-03-11T06:00:05.845Z,10.96
2018-03-11T06:02:34.674Z,11.04
2018-03-11T06:05:06.210Z,11.01
2018-03-11T06:07:34.803Z,11.11
2018-03-11T06:10:06.503Z,11.13
2018-03-11T06:12:34.862Z,11.14
2018-03-11T06:15:05.698Z,11.07
2018-03-11T06:17:33.997Z,11.04
2018-03-11T06:20:07.230Z,11.02
2018-03-11T06:22:35.536Z,11.14
2018-03-11T06:25:05.957Z,11.18
2018-03-11T06:27:34.258Z,11.19
2018-03-11T06:30:05.831Z,11.20
2018-03-11T06:32:34.785Z,11.17
2018-03-11T06:35:06.037Z,11.19
2018-03-11T06:37:34.434Z,11.28
2018-03-11T06:40:08.426Z,11.36
2018-03-11T06:42:36.721Z,11.37
2018-03-11T06:45:06.026Z,11.39
2018-03-11T06:47:34.325Z,11.43
2018-03-11T06:50:06.439Z,11.49
2018-03-11T06:52:35.347Z,11.52
2018-03-11T06:55:07.088Z,11.57
2018-03-11T06:57:35.987Z,11.64
2018-03-11T07:00:07.688Z,11.62
2018-03-11T07:02:36.004Z,11.59
2018-03-11T07:05:07.303Z,11.65
2018-03-11T07:07:35.578Z,11.67
2018-03-11T07:10:07.738Z,11.67
2018-03-11T07:12:36.352Z,11.75
2018-03-11T07:15:06.078Z,11.67
2018-03-11T07:17:34.361Z,11.75
2018-03-11T07:20:07.363Z,11.78
2018-03-11T07:22:35.665Z,11.83
2018-03-11T07:25:06.894Z,11.78
2018-03-11T07:27:35.180Z,11.82
2018-03-11T07:30:06.499Z,11.86
2018-03-11T07:32:34.806Z,11.90
2018-03-11T07:35:06.863Z,11.89
2018-03-11T07:37:35.148Z,12.00
2018-03-11T07:40:06.491Z,11.91
2018-03-11T07:42:34.778Z,12.02
2018-03-11T07:45:06.830Z,11.98
2018-03-11T07:47:35.159Z,12.00
2018-03-11T07:50:05.824Z,12.04
2018-03-11T07:52:34.127Z,12.08
2018-03-11T07:55:07.405Z,12.11
2018-03-11T07:57:35.706Z,12.15
2018-03-11T08:00:07.166Z,12.22
2018-03-11T08:02:35.455Z,12.16
2018-03-11T08:05:06.769Z,12.26
2018-03-11T08:07:35.763Z,12.34
2018-03-11T08:10:07.497Z,12.39
2018-03-11T08:12:35.768Z,12.43
2018-03-11T08:15:08.292Z,12.50
2018-03-11T08:17:36.628Z,12.58
2018-03-11T08:20:06.440Z,12.67
2018-03-11T08:22:34.792Z,12.72
2018-03-11T08:25:05.892Z,12.75
2018-03-11T08:27:34.313Z,12.81
2018-03-11T08:30:09.513Z,12.71
2018-03-11T08:32:37.894Z,12.74
2018-03-11T08:35:06.181Z,12.78
2018-03-11T08:37:34.469Z,12.73
2018-03-11T08:40:06.077Z,12.86
2018-03-11T08:42:34.649Z,12.87
2018-03-11T08:45:06.885Z,12.87
2018-03-11T08:47:35.548Z,12.87
2018-03-11T08:50:07.185Z,12.92
2018-03-11T08:52:35.466Z,13.09
2018-03-11T08:55:07.337Z,13.04
2018-03-11T08:57:35.613Z,13.21
2018-03-11T09:00:07.172Z,13.32
2018-03-11T09:02:35.432Z,13.47
2018-03-11T09:05:06.838Z,13.56
2018-03-11T09:07:35.275Z,13.65
2018-03-11T09:10:07.265Z,13.74
2018-03-11T09:12:35.539Z,13.95
2018-03-11T09:15:06.881Z,14.13
2018-03-11T09:17:35.157Z,14.13
2018-03-11T09:20:05.906Z,14.14
2018-03-11T09:22:34.187Z,14.34
2018-03-11T09:25:06.216Z,14.16
2018-03-11T09:27:34.496Z,14.51
2018-03-11T09:30:06.915Z,14.46
2018-03-11T09:32:36.183Z,14.63
2018-03-11T09:35:07.934Z,14.67
2018-03-11T09:37:36.247Z,14.83
2018-03-11T09:40:06.945Z,14.98
2018-03-11T09:42:35.240Z,15.06
2018-03-11T09:45:05.960Z,14.94
2018-03-11T09:47:34.263Z,15.01
2018-03-11T09:50:05.702Z,15.13
2018-03-11T09:52:34.042Z,15.03
2018-03-11T09:55:07.431Z,15.07
2018-03-11T09:57:35.733Z,15.19
2018-03-11T10:00:07.067Z,15.22
2018-03-11T10:02:35.416Z,15.32
2018-03-11T10:05:07.542Z,15.37
2018-03-11T10:07:35.845Z,15.39
2018-03-11T10:12:35.098Z,15.50
2018-03-11T10:15:06.936Z,15.65
2018-03-11T10:17:35.206Z,15.64
2018-03-11T10:20:06.647Z,15.70
2018-03-11T10:22:34.931Z,15.79
2018-03-11T10:25:06.229Z,15.82
2018-03-11T10:27:38.829Z,15.86
2018-03-11T10:30:07.158Z,15.83
2018-03-11T10:32:36.258Z,15.83
2018-03-11T10:35:07.573Z,15.77
2018-03-11T10:37:35.824Z,15.78
2018-03-11T10:40:07.134Z,15.77
2018-03-11T10:42:35.411Z,15.75
2018-03-11T10:45:06.992Z,15.75
2018-03-11T10:47:35.222Z,15.73
2018-03-11T10:50:06.614Z,15.81
2018-03-11T10:52:34.989Z,15.75
2018-03-11T10:55:06.253Z,15.77
2018-03-11T10:57:34.532Z,15.78
2018-03-11T11:00:06.253Z,15.77
2018-03-11T11:02:37.062Z,15.80
2018-03-11T11:05:06.084Z,15.81
2018-03-11T11:07:34.365Z,15.84
2018-03-11T11:10:05.828Z,15.79
2018-03-11T11:12:34.092Z,15.81
2018-03-11T11:15:05.406Z,15.74
2018-03-11T11:17:33.959Z,15.74
2018-03-11T11:20:08.969Z,15.72
2018-03-11T11:22:37.258Z,15.73
2018-03-11T11:25:06.297Z,15.72
2018-03-11T11:27:34.586Z,15.75
2018-03-11T11:30:08.651Z,15.74
2018-03-11T11:32:37.166Z,15.73
2018-03-11T11:35:06.218Z,15.68
2018-03-11T11:37:35.091Z,15.75
2018-03-11T11:40:06.645Z,15.71
2018-03-11T11:42:35.229Z,15.72
2018-03-11T11:45:07.350Z,15.66
2018-03-11T11:47:36.701Z,15.71
2018-03-11T11:50:06.738Z,15.65
2018-03-11T11:52:35.024Z,15.65
2018-03-11T11:55:07.088Z,15.61
2018-03-11T11:57:35.363Z,15.62
2018-03-11T12:00:06.047Z,15.64
2018-03-11T12:02:34.310Z,15.64
2018-03-11T12:05:05.762Z,15.63
2018-03-11T12:07:34.049Z,15.66
2018-03-11T12:10:06.103Z,15.65
2018-03-11T12:12:34.529Z,15.68
2018-03-11T12:15:09.573Z,15.68
2018-03-11T12:17:37.848Z,15.70
2018-03-11T12:20:06.140Z,15.68
2018-03-11T12:22:34.566Z,15.71
2018-03-11T12:25:10.104Z,15.68
2018-03-11T12:27:38.366Z,15.69
2018-03-11T12:30:06.656Z,15.70
2018-03-11T12:32:34.928Z,15.77
2018-03-11T12:35:06.969Z,15.79
2018-03-11T12:37:35.241Z,15.82
2018-03-11T12:40:06.080Z,15.89
2018-03-11T12:42:34.363Z,15.93
2018-03-11T12:45:06.326Z,15.97
2018-03-11T12:47:34.629Z,16.07
2018-03-11T12:50:06.089Z,16.14
2018-03-11T12:52:34.881Z,16.25
2018-03-11T12:55:07.178Z,16.09
2018-03-11T12:57:35.732Z,16.01
2018-03-11T13:00:07.474Z,16.12
2018-03-11T13:02:35.782Z,16.15
2018-03-11T13:05:07.009Z,16.16
2018-03-11T13:07:35.294Z,16.41
2018-03-11T13:10:07.308Z,16.09
2018-03-11T13:12:39.604Z,16.16
2018-03-11T13:15:07.855Z,16.08
2018-03-11T13:17:36.131Z,16.02
2018-03-11T13:20:18.132Z,16.04
2018-03-11T13:22:46.415Z,16.06
2018-03-11T13:25:14.715Z,16.13
2018-03-11T13:27:54.776Z,16.06
2018-03-11T13:30:23.068Z,16.01
2018-03-11T13:33:03.024Z,16.09
2018-03-11T13:35:31.293Z,16.20
2018-03-11T13:38:11.268Z,16.15
2018-03-11T13:40:40.476Z,16.30
2018-03-11T13:43:09.495Z,16.61
2018-03-11T13:45:49.688Z,16.95
2018-03-11T13:48:18.482Z,16.92
2018-03-11T13:50:46.757Z,16.86
2018-03-11T13:53:26.882Z,17.11
2018-03-11T13:55:55.192Z,16.92
2018-03-11T13:58:35.184Z,16.94
2018-03-11T14:01:03.542Z,16.91
2018-03-11T14:03:31.817Z,17.26
2018-03-11T14:06:00.133Z,17.61
2018-03-11T14:08:28.406Z,17.23
2018-03-11T14:10:56.678Z,16.99
2018-03-11T14:13:24.960Z,17.06
2018-03-11T14:15:53.469Z,17.07
2018-03-11T14:18:21.972Z,16.76
2018-03-11T14:20:54.344Z,16.70
2018-03-11T14:23:27.000Z,16.69
2018-03-11T14:25:55.298Z,16.56
2018-03-11T14:28:23.571Z,16.60
2018-03-11T14:30:51.860Z,16.53
2018-03-11T14:33:20.168Z,16.53
2018-03-11T14:35:48.453Z,16.55
2018-03-11T14:38:16.729Z,16.59
2018-03-11T14:40:45.216Z,16.79
2018-03-11T14:43:13.456Z,16.57
2018-03-11T14:45:41.750Z,16.75
2018-03-11T14:48:10.987Z,16.45
2018-03-11T14:50:39.313Z,16.51
2018-03-11T14:53:08.380Z,16.50
2018-03-11T14:55:36.641Z,16.70
2018-03-11T14:58:04.971Z,16.67
2018-03-11T15:00:33.393Z,16.79
2018-03-11T15:03:01.683Z,16.86
2018-03-11T15:05:29.951Z,16.40
2018-03-11T15:07:58.409Z,16.51
2018-03-11T15:10:26.681Z,16.39
2018-03-11T15:12:55.288Z,16.42
2018-03-11T15:15:23.617Z,16.20
2018-03-11T15:17:51.921Z,16.11
2018-03-11T15:20:20.197Z,16.37
2018-03-11T15:22:48.514Z,16.06
2018-03-11T15:25:16.818Z,16.09
2018-03-11T15:27:45.129Z,16.12
2018-03-11T15:30:13.449Z,16.06
2018-03-11T15:32:41.701Z,16.07
2018-03-11T15:35:09.999Z,15.96
2018-03-11T15:37:38.537Z,15.93
2018-03-11T15:40:06.876Z,15.94
2018-03-11T15:42:35.101Z,15.90
2018-03-11T15:45:07.100Z,15.80
2018-03-11T15:47:35.377Z,15.98
2018-03-11T15:50:07.476Z,15.92
2018-03-11T15:52:35.742Z,15.89
2018-03-11T15:55:07.764Z,15.80
2018-03-11T15:57:36.060Z,15.87
2018-03-11T16:00:08.074Z,15.81
2018-03-11T16:02:36.353Z,15.85
2018-03-11T16:05:06.257Z,15.94
2018-03-11T16:07:34.540Z,15.87
2018-03-11T16:10:06.096Z,15.80
2018-03-11T16:12:34.501Z,15.76
2018-03-11T16:15:06.195Z,15.80
2018-03-11T16:17:34.528Z,15.79
2018-03-11T16:20:06.646Z,15.85
2018-03-11T16:22:34.937Z,15.98
2018-03-11T16:25:06.963Z,15.77
2018-03-11T16:27:35.260Z,15.72
2018-03-11T16:30:06.980Z,15.70
2018-03-11T16:32:35.298Z,15.73
2018-03-11T16:35:07.377Z,15.62
2018-03-11T16:37:35.778Z,15.62
2018-03-11T16:40:07.924Z,15.56
2018-03-11T16:42:36.543Z,15.53
2018-03-11T16:45:08.270Z,15.44
2018-03-11T16:47:36.999Z,15.37
2018-03-11T16:50:06.673Z,15.30
2018-03-11T16:52:35.022Z,15.31
2018-03-11T16:55:06.360Z,15.30
2018-03-11T16:57:34.639Z,15.23
2018-03-11T17:00:06.417Z,15.23
2018-03-11T17:02:35.097Z,15.15
2018-03-11T17:05:07.179Z,15.14
2018-03-11T17:07:35.770Z,15.19
2018-03-11T17:10:07.716Z,15.15
2018-03-11T17:12:35.987Z,15.20
2018-03-11T17:15:07.721Z,15.09
2018-03-11T17:17:35.995Z,15.14
2018-03-11T17:20:08.050Z,15.16
2018-03-11T17:22:36.416Z,14.91
2018-03-11T17:25:06.928Z,14.99
2018-03-11T17:27:35.201Z,14.95
2018-03-11T17:30:07.065Z,14.86
2018-03-11T17:32:35.352Z,14.80
2018-03-11T17:35:06.641Z,14.72
2018-03-11T17:37:35.169Z,14.70
2018-03-11T17:40:06.478Z,14.61
2018-03-11T17:42:34.808Z,14.54
2018-03-11T17:45:06.579Z,14.43
2018-03-11T17:47:34.958Z,14.43
2018-03-11T17:50:06.322Z,14.33
2018-03-11T17:52:34.598Z,14.28
2018-03-11T17:55:06.157Z,14.30
2018-03-11T17:57:34.425Z,14.23
2018-03-11T18:00:07.773Z,14.13
2018-03-11T18:02:36.291Z,13.98
2018-03-11T18:05:07.609Z,14.02
2018-03-11T18:07:35.914Z,13.97
2018-03-11T18:10:08.707Z,14.00
2018-03-11T18:12:36.988Z,13.61
2018-03-11T18:15:07.356Z,13.89
2018-03-11T18:17:35.660Z,13.91
2018-03-11T18:20:06.945Z,13.85
2018-03-11T18:22:35.238Z,13.85
2018-03-11T18:25:07.370Z,13.75
2018-03-11T18:27:36.248Z,13.72
2018-03-11T18:30:07.917Z,13.72
2018-03-11T18:32:36.194Z,13.58
2018-03-11T18:35:07.540Z,13.50
2018-03-11T18:37:35.821Z,13.39
2018-03-11T18:40:07.157Z,13.40
2018-03-11T18:42:35.495Z,13.23
2018-03-11T18:45:07.613Z,13.32
2018-03-11T18:47:35.882Z,13.31
2018-03-11T18:50:07.197Z,13.25
2018-03-11T18:52:35.483Z,13.25
2018-03-11T18:55:06.970Z,13.23
2018-03-11T18:57:35.267Z,13.20
2018-03-11T19:00:07.113Z,13.17
2018-03-11T19:02:35.386Z,13.13
2018-03-11T19:05:07.514Z,13.16
2018-03-11T19:07:35.802Z,13.06
2018-03-11T19:10:06.459Z,12.93
2018-03-11T19:12:34.750Z,12.87
2018-03-11T19:15:06.490Z,12.91
2018-03-11T19:17:34.984Z,12.90
2018-03-11T19:20:08.207Z,12.79
2018-03-11T19:22:36.508Z,12.76
2018-03-11T19:25:06.404Z,12.67
2018-03-11T19:27:34.975Z,12.80
2018-03-11T19:30:06.322Z,12.73
2018-03-11T19:32:34.608Z,12.65
2018-03-11T19:35:09.686Z,12.70
2018-03-11T19:37:37.966Z,12.62
2018-03-11T19:40:06.731Z,12.65
2018-03-11T19:42:35.035Z,12.54
2018-03-11T19:45:07.154Z,12.23
2018-03-11T19:47:35.453Z,12.26
2018-03-11T19:50:07.877Z,12.26
2018-03-11T19:52:36.193Z,12.36
2018-03-11T19:55:08.079Z,12.29
2018-03-11T19:57:36.355Z,12.38
2018-03-11T20:00:07.763Z,12.28
2018-03-11T20:02:36.051Z,12.35
2018-03-11T20:05:07.465Z,12.31
2018-03-11T20:07:35.735Z,12.28
2018-03-11T20:10:07.807Z,12.36
2018-03-11T20:12:36.102Z,12.28
2018-03-11T20:15:08.119Z,12.26
2018-03-11T20:17:36.396Z,12.16
2018-03-11T20:20:07.787Z,12.04
2018-03-11T20:22:36.178Z,11.91
2018-03-11T20:25:08.802Z,11.86
2018-03-11T20:27:37.215Z,11.93
2018-03-11T20:30:06.525Z,11.93
2018-03-11T20:32:34.798Z,11.74
2018-03-11T20:35:08.048Z,11.65
2018-03-11T20:37:36.451Z,11.67
2018-03-11T20:40:08.572Z,11.68
2018-03-11T20:42:37.121Z,11.76
2018-03-11T20:45:05.531Z,11.75
2018-03-11T20:47:34.663Z,11.93
2018-03-11T20:50:07.035Z,11.94
2018-03-11T20:52:35.302Z,11.83
2018-03-11T20:55:07.200Z,11.81
2018-03-11T20:57:35.483Z,11.78
2018-03-11T21:00:05.645Z,11.83
2018-03-11T21:02:33.962Z,11.95
2018-03-11T21:05:08.897Z,12.00
2018-03-11T21:07:37.190Z,12.04
2018-03-11T21:10:05.700Z,12.05
2018-03-11T21:12:35.832Z,12.06
2018-03-11T21:15:06.879Z,12.03
2018-03-11T21:17:36.522Z,11.99
2018-03-11T21:20:07.452Z,11.94
2018-03-11T21:22:37.233Z,11.84
2018-03-11T21:25:10.970Z,11.80
2018-03-11T21:27:39.352Z,11.70
2018-03-11T21:30:07.609Z,11.63
2018-03-11T21:32:36.082Z,11.63
2018-03-11T21:35:07.405Z,11.70
2018-03-11T21:37:35.666Z,11.57
2018-03-11T21:40:05.574Z,11.48
2018-03-11T21:42:33.841Z,11.63
2018-03-11T21:45:05.745Z,11.66
2018-03-11T21:47:34.430Z,11.59
2018-03-11T21:50:05.590Z,11.57
2018-03-11T21:52:33.865Z,11.53
2018-03-11T21:55:05.517Z,11.56
2018-03-11T21:57:33.792Z,11.44
2018-03-11T22:00:05.286Z,11.41
2018-03-11T22:02:33.571Z,11.40
2018-03-11T22:05:05.903Z,11.24
2018-03-11T22:07:34.164Z,11.22
2018-03-11T22:10:08.243Z,11.26
2018-03-11T22:12:36.515Z,11.18
2018-03-11T22:15:06.039Z,11.05
2018-03-11T22:17:34.311Z,11.04
2018-03-11T22:20:09.385Z,11.03
2018-03-11T22:22:37.653Z,10.86
2018-03-11T22:25:05.934Z,10.80
2018-03-11T22:27:34.189Z,10.80
2018-03-11T22:30:08.969Z,10.72
2018-03-11T22:32:37.245Z,10.64
2018-03-11T22:35:05.643Z,10.53
2018-03-11T22:37:33.905Z,10.52
2018-03-11T22:40:05.812Z,10.33
2018-03-11T22:42:34.077Z,10.22
2018-03-11T22:45:09.258Z,10.34
2018-03-11T22:47:37.631Z,10.30
2018-03-11T22:50:05.905Z,10.40
2018-03-11T22:52:34.194Z,10.34
2018-03-11T22:55:08.594Z,10.49
2018-03-11T22:57:36.897Z,10.61
2018-03-11T23:00:06.268Z,10.76
2018-03-11T23:02:34.561Z,10.75
2018-03-11T23:05:05.913Z,10.61
2018-03-11T23:07:34.233Z,10.74
2018-03-11T23:10:08.181Z,10.83
2018-03-11T23:12:36.754Z,10.76
2018-03-11T23:15:05.926Z,10.73
2018-03-11T23:17:34.249Z,10.65
2018-03-11T23:20:08.261Z,10.70
2018-03-11T23:22:36.551Z,10.61
2018-03-11T23:25:06.157Z,10.62
2018-03-11T23:27:34.442Z,10.64
2018-03-11T23:30:05.838Z,10.55
2018-03-11T23:32:34.115Z,10.71
2018-03-11T23:35:05.492Z,10.82
2018-03-11T23:37:34.052Z,10.85
2018-03-11T23:40:05.862Z,10.95
2018-03-11T23:42:34.792Z,11.04
2018-03-11T23:45:06.673Z,10.98
2018-03-11T23:47:34.941Z,11.02
2018-03-11T23:50:07.088Z,10.97
2018-03-11T23:52:35.572Z,11.13
2018-03-11T23:55:07.582Z,11.17
2018-03-11T23:57:35.841Z,11.14
